sensor_id;sensor_type;location;lat;lon;timestamp;P1;durP1;ratioP1;P2;durP2;ratioP2
43756;SDS011;73222;41.866;12.462;2024-01-30T00:02:21;30.55;;;20.02;;
43756;SDS011;73222;41.866;12.462;2024-01-30T00:04:46;31.17;;;19.55;;
43756;SDS011;73222;41.866;12.462;2024-01-30T00:07:12;32.53;;;19.73;;
43756;SDS011;73222;41.866;12.462;2024-01-30T00:09:38;30.50;;;19.38;;
43756;SDS011;73222;41.866;12.462;2024-01-30T00:12:05;32.90;;;19.55;;
43756;SDS011;73222;41.866;12.462;2024-01-30T00:14:31;37.35;;;19.88;;
43756;SDS011;73222;41.866;12.462;2024-01-30T00:16:56;29.52;;;17.92;;
43756;SDS011;73222;41.866;12.462;2024-01-30T00:19:22;28.92;;;19.30;;
43756;SDS011;73222;41.866;12.462;2024-01-30T00:21:47;32.13;;;20.50;;
43756;SDS011;73222;41.866;12.462;2024-01-30T00:24:13;31.00;;;20.17;;
43756;SDS011;73222;41.866;12.462;2024-01-30T00:26:40;29.27;;;19.10;;
43756;SDS011;73222;41.866;12.462;2024-01-30T00:29:05;32.17;;;20.20;;
43756;SDS011;73222;41.866;12.462;2024-01-30T00:31:30;29.83;;;19.27;;
43756;SDS011;73222;41.866;12.462;2024-01-30T00:33:56;32.08;;;20.08;;
43756;SDS011;73222;41.866;12.462;2024-01-30T00:36:21;29.95;;;18.73;;
43756;SDS011;73222;41.866;12.462;2024-01-30T00:38:47;28.30;;;18.20;;
43756;SDS011;73222;41.866;12.462;2024-01-30T00:41:12;30.75;;;18.98;;
43756;SDS011;73222;41.866;12.462;2024-01-30T00:43:37;27.17;;;18.25;;
43756;SDS011;73222;41.866;12.462;2024-01-30T00:46:03;26.70;;;17.48;;
43756;SDS011;73222;41.866;12.462;2024-01-30T00:48:28;33.47;;;18.52;;
43756;SDS011;73222;41.866;12.462;2024-01-30T00:50:54;26.48;;;17.95;;
43756;SDS011;73222;41.866;12.462;2024-01-30T00:53:19;30.88;;;18.83;;
43756;SDS011;73222;41.866;12.462;2024-01-30T00:55:44;28.13;;;18.15;;
43756;SDS011;73222;41.866;12.462;2024-01-30T00:58:10;32.97;;;19.52;;
43756;SDS011;73222;41.866;12.462;2024-01-30T01:00:35;26.85;;;17.70;;
43756;SDS011;73222;41.866;12.462;2024-01-30T01:03:01;30.35;;;17.88;;
43756;SDS011;73222;41.866;12.462;2024-01-30T01:05:27;33.67;;;18.67;;
43756;SDS011;73222;41.866;12.462;2024-01-30T01:07:52;31.40;;;19.40;;
43756;SDS011;73222;41.866;12.462;2024-01-30T01:10:18;31.27;;;18.95;;
43756;SDS011;73222;41.866;12.462;2024-01-30T01:12:44;28.02;;;18.63;;
43756;SDS011;73222;41.866;12.462;2024-01-30T01:15:10;37.53;;;20.73;;
43756;SDS011;73222;41.866;12.462;2024-01-30T01:17:35;27.25;;;18.73;;
43756;SDS011;73222;41.866;12.462;2024-01-30T01:20:02;25.27;;;18.20;;
43756;SDS011;73222;41.866;12.462;2024-01-30T01:22:28;27.10;;;18.23;;
43756;SDS011;73222;41.866;12.462;2024-01-30T01:24:54;29.23;;;18.67;;
43756;SDS011;73222;41.866;12.462;2024-01-30T01:27:19;32.45;;;18.08;;
43756;SDS011;73222;41.866;12.462;2024-01-30T01:29:44;31.33;;;19.02;;
43756;SDS011;73222;41.866;12.462;2024-01-30T01:32:10;31.27;;;17.92;;
43756;SDS011;73222;41.866;12.462;2024-01-30T01:34:36;27.25;;;18.23;;
43756;SDS011;73222;41.866;12.462;2024-01-30T01:37:01;28.33;;;19.02;;
43756;SDS011;73222;41.866;12.462;2024-01-30T01:39:27;30.15;;;18.77;;
43756;SDS011;73222;41.866;12.462;2024-01-30T01:41:52;30.33;;;17.73;;
43756;SDS011;73222;41.866;12.462;2024-01-30T01:44:18;29.92;;;18.48;;
43756;SDS011;73222;41.866;12.462;2024-01-30T01:46:43;33.33;;;20.67;;
43756;SDS011;73222;41.866;12.462;2024-01-30T01:49:09;27.90;;;16.95;;
43756;SDS011;73222;41.866;12.462;2024-01-30T01:51:35;31.83;;;19.23;;
43756;SDS011;73222;41.866;12.462;2024-01-30T01:54:02;28.15;;;18.45;;
43756;SDS011;73222;41.866;12.462;2024-01-30T01:56:29;31.35;;;19.27;;
43756;SDS011;73222;41.866;12.462;2024-01-30T01:58:55;25.95;;;17.65;;
43756;SDS011;73222;41.866;12.462;2024-01-30T02:01:25;27.73;;;18.85;;
43756;SDS011;73222;41.866;12.462;2024-01-30T02:03:51;27.80;;;18.27;;
43756;SDS011;73222;41.866;12.462;2024-01-30T02:06:16;28.55;;;17.25;;
43756;SDS011;73222;41.866;12.462;2024-01-30T02:08:42;30.65;;;19.48;;
43756;SDS011;73222;41.866;12.462;2024-01-30T02:11:08;27.23;;;19.02;;
43756;SDS011;73222;41.866;12.462;2024-01-30T02:13:35;33.83;;;19.85;;
43756;SDS011;73222;41.866;12.462;2024-01-30T02:16:00;35.72;;;19.92;;
43756;SDS011;73222;41.866;12.462;2024-01-30T02:18:26;34.83;;;19.73;;
43756;SDS011;73222;41.866;12.462;2024-01-30T02:20:53;30.92;;;19.17;;
43756;SDS011;73222;41.866;12.462;2024-01-30T02:23:22;27.08;;;17.77;;
43756;SDS011;73222;41.866;12.462;2024-01-30T02:25:50;30.00;;;18.15;;
43756;SDS011;73222;41.866;12.462;2024-01-30T02:28:18;28.80;;;19.17;;
43756;SDS011;73222;41.866;12.462;2024-01-30T02:30:44;32.33;;;17.63;;
43756;SDS011;73222;41.866;12.462;2024-01-30T02:33:10;29.60;;;17.70;;
43756;SDS011;73222;41.866;12.462;2024-01-30T02:35:35;37.63;;;20.38;;
43756;SDS011;73222;41.866;12.462;2024-01-30T02:38:01;29.20;;;19.15;;
43756;SDS011;73222;41.866;12.462;2024-01-30T02:40:26;27.70;;;18.80;;
43756;SDS011;73222;41.866;12.462;2024-01-30T02:42:52;28.85;;;19.85;;
43756;SDS011;73222;41.866;12.462;2024-01-30T02:45:17;30.48;;;19.33;;
43756;SDS011;73222;41.866;12.462;2024-01-30T02:47:43;28.50;;;18.77;;
43756;SDS011;73222;41.866;12.462;2024-01-30T02:50:08;30.08;;;20.00;;
43756;SDS011;73222;41.866;12.462;2024-01-30T02:52:34;31.40;;;19.30;;
43756;SDS011;73222;41.866;12.462;2024-01-30T02:55:00;26.58;;;17.38;;
43756;SDS011;73222;41.866;12.462;2024-01-30T02:57:25;28.98;;;18.98;;
43756;SDS011;73222;41.866;12.462;2024-01-30T02:59:51;33.45;;;19.33;;
43756;SDS011;73222;41.866;12.462;2024-01-30T03:02:16;31.33;;;18.95;;
43756;SDS011;73222;41.866;12.462;2024-01-30T03:04:42;30.13;;;17.10;;
43756;SDS011;73222;41.866;12.462;2024-01-30T03:07:07;28.85;;;17.67;;
43756;SDS011;73222;41.866;12.462;2024-01-30T03:09:33;25.70;;;16.70;;
43756;SDS011;73222;41.866;12.462;2024-01-30T03:11:58;28.60;;;17.42;;
43756;SDS011;73222;41.866;12.462;2024-01-30T03:14:24;28.70;;;17.95;;
43756;SDS011;73222;41.866;12.462;2024-01-30T03:16:49;27.85;;;17.27;;
43756;SDS011;73222;41.866;12.462;2024-01-30T03:19:15;25.90;;;17.65;;
43756;SDS011;73222;41.866;12.462;2024-01-30T03:21:40;26.10;;;17.52;;
43756;SDS011;73222;41.866;12.462;2024-01-30T03:24:05;28.20;;;17.25;;
43756;SDS011;73222;41.866;12.462;2024-01-30T03:26:31;27.85;;;19.08;;
43756;SDS011;73222;41.866;12.462;2024-01-30T03:28:56;32.40;;;19.10;;
43756;SDS011;73222;41.866;12.462;2024-01-30T03:31:22;28.38;;;18.13;;
43756;SDS011;73222;41.866;12.462;2024-01-30T03:33:47;28.73;;;16.73;;
43756;SDS011;73222;41.866;12.462;2024-01-30T03:36:12;31.02;;;18.08;;
43756;SDS011;73222;41.866;12.462;2024-01-30T03:38:38;29.02;;;19.70;;
43756;SDS011;73222;41.866;12.462;2024-01-30T03:41:03;31.95;;;18.13;;
43756;SDS011;73222;41.866;12.462;2024-01-30T03:43:33;28.75;;;18.17;;
43756;SDS011;73222;41.866;12.462;2024-01-30T03:45:59;34.42;;;19.98;;
43756;SDS011;73222;41.866;12.462;2024-01-30T03:48:24;28.52;;;17.65;;
43756;SDS011;73222;41.866;12.462;2024-01-30T03:50:52;31.48;;;19.00;;
43756;SDS011;73222;41.866;12.462;2024-01-30T03:53:17;28.95;;;18.48;;
43756;SDS011;73222;41.866;12.462;2024-01-30T03:55:42;28.92;;;18.15;;
43756;SDS011;73222;41.866;12.462;2024-01-30T03:58:08;31.35;;;19.75;;
43756;SDS011;73222;41.866;12.462;2024-01-30T04:00:33;32.50;;;17.85;;
43756;SDS011;73222;41.866;12.462;2024-01-30T04:02:58;26.88;;;17.52;;
43756;SDS011;73222;41.866;12.462;2024-01-30T04:05:24;30.63;;;19.50;;
43756;SDS011;73222;41.866;12.462;2024-01-30T04:07:49;32.25;;;17.77;;
43756;SDS011;73222;41.866;12.462;2024-01-30T04:10:14;27.30;;;17.58;;
43756;SDS011;73222;41.866;12.462;2024-01-30T04:12:40;28.48;;;18.13;;
43756;SDS011;73222;41.866;12.462;2024-01-30T04:15:05;26.10;;;17.83;;
43756;SDS011;73222;41.866;12.462;2024-01-30T04:17:31;29.85;;;18.38;;
43756;SDS011;73222;41.866;12.462;2024-01-30T04:19:57;27.42;;;19.77;;
43756;SDS011;73222;41.866;12.462;2024-01-30T04:22:23;32.55;;;18.75;;
43756;SDS011;73222;41.866;12.462;2024-01-30T04:24:48;30.17;;;18.63;;
43756;SDS011;73222;41.866;12.462;2024-01-30T04:27:13;30.52;;;18.77;;
43756;SDS011;73222;41.866;12.462;2024-01-30T04:29:39;28.38;;;18.33;;
43756;SDS011;73222;41.866;12.462;2024-01-30T04:32:04;30.70;;;19.05;;
43756;SDS011;73222;41.866;12.462;2024-01-30T04:34:30;34.22;;;19.38;;
43756;SDS011;73222;41.866;12.462;2024-01-30T04:36:55;31.52;;;19.08;;
43756;SDS011;73222;41.866;12.462;2024-01-30T04:39:21;30.05;;;18.33;;
43756;SDS011;73222;41.866;12.462;2024-01-30T04:41:46;27.80;;;18.65;;
43756;SDS011;73222;41.866;12.462;2024-01-30T04:44:11;29.00;;;18.63;;
43756;SDS011;73222;41.866;12.462;2024-01-30T04:46:37;27.20;;;19.30;;
43756;SDS011;73222;41.866;12.462;2024-01-30T04:49:02;30.77;;;18.48;;
43756;SDS011;73222;41.866;12.462;2024-01-30T04:51:28;29.58;;;18.15;;
43756;SDS011;73222;41.866;12.462;2024-01-30T04:53:54;28.15;;;18.73;;
43756;SDS011;73222;41.866;12.462;2024-01-30T04:56:20;36.13;;;19.20;;
43756;SDS011;73222;41.866;12.462;2024-01-30T04:58:45;28.58;;;18.98;;
43756;SDS011;73222;41.866;12.462;2024-01-30T05:01:14;29.60;;;17.83;;
43756;SDS011;73222;41.866;12.462;2024-01-30T05:03:41;27.75;;;18.27;;
43756;SDS011;73222;41.866;12.462;2024-01-30T05:06:06;32.42;;;19.77;;
43756;SDS011;73222;41.866;12.462;2024-01-30T05:08:31;28.15;;;18.85;;
43756;SDS011;73222;41.866;12.462;2024-01-30T05:11:01;29.65;;;17.98;;
43756;SDS011;73222;41.866;12.462;2024-01-30T05:13:28;34.20;;;19.30;;
43756;SDS011;73222;41.866;12.462;2024-01-30T05:15:56;28.20;;;18.00;;
43756;SDS011;73222;41.866;12.462;2024-01-30T05:18:22;29.35;;;18.30;;
43756;SDS011;73222;41.866;12.462;2024-01-30T05:20:48;30.23;;;18.27;;
43756;SDS011;73222;41.866;12.462;2024-01-30T05:23:14;32.08;;;18.17;;
43756;SDS011;73222;41.866;12.462;2024-01-30T05:25:40;32.75;;;19.02;;
43756;SDS011;73222;41.866;12.462;2024-01-30T05:28:05;29.60;;;18.40;;
43756;SDS011;73222;41.866;12.462;2024-01-30T05:30:31;30.30;;;18.75;;
43756;SDS011;73222;41.866;12.462;2024-01-30T05:32:56;31.77;;;17.95;;
43756;SDS011;73222;41.866;12.462;2024-01-30T05:35:21;31.10;;;16.70;;
43756;SDS011;73222;41.866;12.462;2024-01-30T05:37:50;25.02;;;16.73;;
43756;SDS011;73222;41.866;12.462;2024-01-30T05:40:16;30.55;;;17.83;;
43756;SDS011;73222;41.866;12.462;2024-01-30T05:42:41;29.60;;;18.55;;
43756;SDS011;73222;41.866;12.462;2024-01-30T05:45:07;31.15;;;17.95;;
43756;SDS011;73222;41.866;12.462;2024-01-30T05:47:33;29.38;;;18.92;;
43756;SDS011;73222;41.866;12.462;2024-01-30T05:49:59;25.67;;;16.92;;
43756;SDS011;73222;41.866;12.462;2024-01-30T05:52:24;31.98;;;18.30;;
43756;SDS011;73222;41.866;12.462;2024-01-30T05:54:50;28.25;;;17.52;;
43756;SDS011;73222;41.866;12.462;2024-01-30T05:57:16;32.42;;;17.83;;
43756;SDS011;73222;41.866;12.462;2024-01-30T05:59:41;26.35;;;18.30;;
43756;SDS011;73222;41.866;12.462;2024-01-30T06:02:07;26.88;;;16.05;;
43756;SDS011;73222;41.866;12.462;2024-01-30T06:04:32;26.98;;;17.65;;
43756;SDS011;73222;41.866;12.462;2024-01-30T06:06:57;34.58;;;17.10;;
43756;SDS011;73222;41.866;12.462;2024-01-30T06:09:26;27.70;;;17.02;;
43756;SDS011;73222;41.866;12.462;2024-01-30T06:11:52;27.33;;;17.02;;
43756;SDS011;73222;41.866;12.462;2024-01-30T06:14:17;26.13;;;16.83;;
43756;SDS011;73222;41.866;12.462;2024-01-30T06:16:45;29.95;;;16.67;;
43756;SDS011;73222;41.866;12.462;2024-01-30T06:19:11;27.33;;;16.50;;
43756;SDS011;73222;41.866;12.462;2024-01-30T06:21:36;31.38;;;17.15;;
43756;SDS011;73222;41.866;12.462;2024-01-30T06:24:03;24.42;;;16.52;;
43756;SDS011;73222;41.866;12.462;2024-01-30T06:26:29;27.88;;;16.23;;
43756;SDS011;73222;41.866;12.462;2024-01-30T06:28:55;26.90;;;16.27;;
43756;SDS011;73222;41.866;12.462;2024-01-30T06:31:21;26.10;;;17.63;;
43756;SDS011;73222;41.866;12.462;2024-01-30T06:33:47;30.55;;;17.48;;
43756;SDS011;73222;41.866;12.462;2024-01-30T06:36:12;31.13;;;17.33;;
43756;SDS011;73222;41.866;12.462;2024-01-30T06:38:38;25.70;;;16.35;;
43756;SDS011;73222;41.866;12.462;2024-01-30T06:41:03;25.30;;;16.60;;
43756;SDS011;73222;41.866;12.462;2024-01-30T06:43:29;28.80;;;17.10;;
43756;SDS011;73222;41.866;12.462;2024-01-30T06:45:54;25.27;;;16.17;;
43756;SDS011;73222;41.866;12.462;2024-01-30T06:48:20;26.42;;;15.10;;
43756;SDS011;73222;41.866;12.462;2024-01-30T06:50:45;27.92;;;16.45;;
43756;SDS011;73222;41.866;12.462;2024-01-30T06:53:11;23.77;;;16.52;;
43756;SDS011;73222;41.866;12.462;2024-01-30T06:55:36;25.95;;;16.20;;
43756;SDS011;73222;41.866;12.462;2024-01-30T06:58:02;22.67;;;14.82;;
43756;SDS011;73222;41.866;12.462;2024-01-30T07:00:28;27.48;;;16.55;;
43756;SDS011;73222;41.866;12.462;2024-01-30T07:02:53;23.60;;;15.90;;
43756;SDS011;73222;41.866;12.462;2024-01-30T07:05:18;27.00;;;14.68;;
43756;SDS011;73222;41.866;12.462;2024-01-30T07:07:44;26.10;;;16.13;;
43756;SDS011;73222;41.866;12.462;2024-01-30T07:10:09;24.92;;;16.35;;
43756;SDS011;73222;41.866;12.462;2024-01-30T07:12:35;21.50;;;15.52;;
43756;SDS011;73222;41.866;12.462;2024-01-30T07:15:03;28.27;;;15.60;;
43756;SDS011;73222;41.866;12.462;2024-01-30T07:17:28;22.13;;;16.10;;
43756;SDS011;73222;41.866;12.462;2024-01-30T07:19:54;24.73;;;17.23;;
43756;SDS011;73222;41.866;12.462;2024-01-30T07:22:19;28.63;;;15.88;;
43756;SDS011;73222;41.866;12.462;2024-01-30T07:24:45;25.52;;;17.45;;
43756;SDS011;73222;41.866;12.462;2024-01-30T07:27:13;23.10;;;16.15;;
43756;SDS011;73222;41.866;12.462;2024-01-30T07:29:39;25.88;;;17.45;;
43756;SDS011;73222;41.866;12.462;2024-01-30T07:32:05;22.80;;;17.70;;
43756;SDS011;73222;41.866;12.462;2024-01-30T07:34:30;24.13;;;17.58;;
43756;SDS011;73222;41.866;12.462;2024-01-30T07:36:56;24.35;;;17.58;;
43756;SDS011;73222;41.866;12.462;2024-01-30T07:39:21;23.33;;;17.33;;
43756;SDS011;73222;41.866;12.462;2024-01-30T07:41:47;24.45;;;17.20;;
43756;SDS011;73222;41.866;12.462;2024-01-30T07:44:12;26.20;;;18.75;;
43756;SDS011;73222;41.866;12.462;2024-01-30T07:46:38;25.30;;;16.77;;
43756;SDS011;73222;41.866;12.462;2024-01-30T07:49:06;31.05;;;18.42;;
43756;SDS011;73222;41.866;12.462;2024-01-30T07:51:31;22.50;;;17.42;;
43756;SDS011;73222;41.866;12.462;2024-01-30T07:53:58;23.08;;;18.15;;
43756;SDS011;73222;41.866;12.462;2024-01-30T07:56:23;24.73;;;17.95;;
43756;SDS011;73222;41.866;12.462;2024-01-30T07:58:49;21.55;;;17.98;;
43756;SDS011;73222;41.866;12.462;2024-01-30T08:01:15;24.33;;;17.20;;
43756;SDS011;73222;41.866;12.462;2024-01-30T08:03:40;21.70;;;17.77;;
43756;SDS011;73222;41.866;12.462;2024-01-30T08:06:07;23.38;;;18.55;;
43756;SDS011;73222;41.866;12.462;2024-01-30T08:08:32;24.67;;;17.05;;
43756;SDS011;73222;41.866;12.462;2024-01-30T08:10:58;20.92;;;15.70;;
43756;SDS011;73222;41.866;12.462;2024-01-30T08:13:23;28.88;;;17.50;;
43756;SDS011;73222;41.866;12.462;2024-01-30T08:15:49;21.95;;;17.70;;
43756;SDS011;73222;41.866;12.462;2024-01-30T08:18:14;21.23;;;17.13;;
43756;SDS011;73222;41.866;12.462;2024-01-30T08:20:40;22.92;;;17.17;;
43756;SDS011;73222;41.866;12.462;2024-01-30T08:23:05;22.08;;;18.17;;
43756;SDS011;73222;41.866;12.462;2024-01-30T08:25:31;21.77;;;16.88;;
43756;SDS011;73222;41.866;12.462;2024-01-30T08:27:57;23.98;;;19.20;;
43756;SDS011;73222;41.866;12.462;2024-01-30T08:30:22;20.83;;;17.73;;
43756;SDS011;73222;41.866;12.462;2024-01-30T08:32:48;26.27;;;17.23;;
43756;SDS011;73222;41.866;12.462;2024-01-30T08:35:13;20.15;;;17.38;;
43756;SDS011;73222;41.866;12.462;2024-01-30T08:37:41;25.77;;;17.48;;
43756;SDS011;73222;41.866;12.462;2024-01-30T08:40:08;22.33;;;16.65;;
43756;SDS011;73222;41.866;12.462;2024-01-30T08:42:34;24.65;;;17.33;;
43756;SDS011;73222;41.866;12.462;2024-01-30T08:44:59;28.20;;;17.77;;
43756;SDS011;73222;41.866;12.462;2024-01-30T08:47:25;26.85;;;17.38;;
43756;SDS011;73222;41.866;12.462;2024-01-30T08:49:50;24.85;;;18.15;;
43756;SDS011;73222;41.866;12.462;2024-01-30T08:52:16;22.30;;;17.80;;
43756;SDS011;73222;41.866;12.462;2024-01-30T08:54:42;20.90;;;16.90;;
43756;SDS011;73222;41.866;12.462;2024-01-30T08:57:07;21.98;;;17.52;;
43756;SDS011;73222;41.866;12.462;2024-01-30T08:59:33;21.70;;;16.95;;
43756;SDS011;73222;41.866;12.462;2024-01-30T09:01:58;26.80;;;17.73;;
43756;SDS011;73222;41.866;12.462;2024-01-30T09:04:24;24.65;;;16.98;;
43756;SDS011;73222;41.866;12.462;2024-01-30T09:06:50;21.58;;;16.65;;
43756;SDS011;73222;41.866;12.462;2024-01-30T09:09:15;20.50;;;17.00;;
43756;SDS011;73222;41.866;12.462;2024-01-30T09:11:42;22.98;;;17.83;;
43756;SDS011;73222;41.866;12.462;2024-01-30T09:14:08;24.75;;;17.77;;
43756;SDS011;73222;41.866;12.462;2024-01-30T09:16:33;22.60;;;16.13;;
43756;SDS011;73222;41.866;12.462;2024-01-30T09:19:00;19.88;;;15.60;;
43756;SDS011;73222;41.866;12.462;2024-01-30T09:21:26;22.48;;;16.67;;
43756;SDS011;73222;41.866;12.462;2024-01-30T09:23:53;18.80;;;16.33;;
43756;SDS011;73222;41.866;12.462;2024-01-30T09:26:19;19.67;;;15.75;;
43756;SDS011;73222;41.866;12.462;2024-01-30T09:28:45;19.02;;;16.58;;
43756;SDS011;73222;41.866;12.462;2024-01-30T09:31:11;21.55;;;16.65;;
43756;SDS011;73222;41.866;12.462;2024-01-30T09:33:37;22.83;;;16.23;;
43756;SDS011;73222;41.866;12.462;2024-01-30T09:36:04;18.48;;;15.25;;
43756;SDS011;73222;41.866;12.462;2024-01-30T09:38:30;22.40;;;15.70;;
43756;SDS011;73222;41.866;12.462;2024-01-30T09:40:55;19.98;;;15.68;;
43756;SDS011;73222;41.866;12.462;2024-01-30T09:43:23;22.08;;;16.02;;
43756;SDS011;73222;41.866;12.462;2024-01-30T09:45:52;19.10;;;15.15;;
43756;SDS011;73222;41.866;12.462;2024-01-30T09:48:19;19.83;;;15.77;;
43756;SDS011;73222;41.866;12.462;2024-01-30T09:50:44;22.88;;;15.52;;
43756;SDS011;73222;41.866;12.462;2024-01-30T09:53:10;18.92;;;15.82;;
43756;SDS011;73222;41.866;12.462;2024-01-30T09:58:04;20.00;;;14.48;;
43756;SDS011;73222;41.866;12.462;2024-01-30T10:00:30;22.77;;;15.15;;
43756;SDS011;73222;41.866;12.462;2024-01-30T10:02:56;21.20;;;14.93;;
43756;SDS011;73222;41.866;12.462;2024-01-30T10:05:22;19.08;;;14.95;;
43756;SDS011;73222;41.866;12.462;2024-01-30T10:07:53;18.10;;;14.20;;
43756;SDS011;73222;41.866;12.462;2024-01-30T10:10:21;22.13;;;16.23;;
43756;SDS011;73222;41.866;12.462;2024-01-30T10:12:48;22.20;;;14.63;;
43756;SDS011;73222;41.866;12.462;2024-01-30T10:15:14;19.27;;;15.68;;
43756;SDS011;73222;41.866;12.462;2024-01-30T10:17:39;16.63;;;14.45;;
43756;SDS011;73222;41.866;12.462;2024-01-30T10:20:05;16.75;;;14.10;;
43756;SDS011;73222;41.866;12.462;2024-01-30T10:22:31;16.77;;;14.13;;
43756;SDS011;73222;41.866;12.462;2024-01-30T10:24:56;20.92;;;15.30;;
43756;SDS011;73222;41.866;12.462;2024-01-30T10:27:28;18.98;;;15.48;;
43756;SDS011;73222;41.866;12.462;2024-01-30T10:29:54;17.75;;;15.50;;
43756;SDS011;73222;41.866;12.462;2024-01-30T10:32:21;21.52;;;15.02;;
43756;SDS011;73222;41.866;12.462;2024-01-30T10:34:47;19.15;;;14.30;;
43756;SDS011;73222;41.866;12.462;2024-01-30T10:37:14;17.40;;;14.55;;
43756;SDS011;73222;41.866;12.462;2024-01-30T10:39:41;17.92;;;15.52;;
43756;SDS011;73222;41.866;12.462;2024-01-30T10:42:12;20.35;;;15.70;;
43756;SDS011;73222;41.866;12.462;2024-01-30T10:47:18;16.35;;;14.40;;
43756;SDS011;73222;41.866;12.462;2024-01-30T10:49:49;19.70;;;14.85;;
43756;SDS011;73222;41.866;12.462;2024-01-30T10:52:16;20.40;;;16.63;;
43756;SDS011;73222;41.866;12.462;2024-01-30T10:54:43;25.38;;;16.17;;
43756;SDS011;73222;41.866;12.462;2024-01-30T10:57:09;19.40;;;15.98;;
43756;SDS011;73222;41.866;12.462;2024-01-30T10:59:37;19.27;;;16.15;;
43756;SDS011;73222;41.866;12.462;2024-01-30T11:02:03;20.50;;;15.38;;
43756;SDS011;73222;41.866;12.462;2024-01-30T11:04:37;18.15;;;15.82;;
43756;SDS011;73222;41.866;12.462;2024-01-30T11:07:16;19.42;;;14.45;;
43756;SDS011;73222;41.866;12.462;2024-01-30T11:09:51;25.27;;;15.90;;
43756;SDS011;73222;41.866;12.462;2024-01-30T11:12:21;18.92;;;15.63;;
43756;SDS011;73222;41.866;12.462;2024-01-30T11:14:48;17.95;;;14.40;;
43756;SDS011;73222;41.866;12.462;2024-01-30T11:17:14;19.10;;;14.63;;
43756;SDS011;73222;41.866;12.462;2024-01-30T11:19:39;16.83;;;14.50;;
43756;SDS011;73222;41.866;12.462;2024-01-30T11:24:38;16.55;;;14.85;;
43756;SDS011;73222;41.866;12.462;2024-01-30T11:27:07;17.02;;;14.95;;
43756;SDS011;73222;41.866;12.462;2024-01-30T11:29:34;17.23;;;14.45;;
43756;SDS011;73222;41.866;12.462;2024-01-30T11:32:00;20.75;;;15.90;;
43756;SDS011;73222;41.866;12.462;2024-01-30T11:34:25;21.00;;;14.95;;
43756;SDS011;73222;41.866;12.462;2024-01-30T11:36:52;19.08;;;14.73;;
43756;SDS011;73222;41.866;12.462;2024-01-30T11:39:24;18.50;;;14.18;;
43756;SDS011;73222;41.866;12.462;2024-01-30T11:41:51;18.90;;;14.93;;
43756;SDS011;73222;41.866;12.462;2024-01-30T11:44:18;15.90;;;14.07;;
43756;SDS011;73222;41.866;12.462;2024-01-30T11:49:11;14.07;;;12.65;;
43756;SDS011;73222;41.866;12.462;2024-01-30T11:51:37;16.15;;;13.65;;
43756;SDS011;73222;41.866;12.462;2024-01-30T11:54:02;15.48;;;13.90;;
43756;SDS011;73222;41.866;12.462;2024-01-30T11:56:28;15.55;;;13.80;;
43756;SDS011;73222;41.866;12.462;2024-01-30T11:58:53;15.35;;;13.63;;
43756;SDS011;73222;41.866;12.462;2024-01-30T12:01:20;15.20;;;13.63;;
43756;SDS011;73222;41.866;12.462;2024-01-30T12:03:51;15.07;;;12.93;;
43756;SDS011;73222;41.866;12.462;2024-01-30T12:06:17;16.67;;;13.38;;
43756;SDS011;73222;41.866;12.462;2024-01-30T12:08:42;15.52;;;12.93;;
43756;SDS011;73222;41.866;12.462;2024-01-30T12:11:08;18.35;;;14.73;;
43756;SDS011;73222;41.866;12.462;2024-01-30T12:13:33;14.80;;;13.30;;
43756;SDS011;73222;41.866;12.462;2024-01-30T12:15:59;14.48;;;13.05;;
43756;SDS011;73222;41.866;12.462;2024-01-30T12:18:25;15.23;;;13.23;;
43756;SDS011;73222;41.866;12.462;2024-01-30T12:20:58;14.80;;;13.23;;
43756;SDS011;73222;41.866;12.462;2024-01-30T12:23:29;18.70;;;14.32;;
43756;SDS011;73222;41.866;12.462;2024-01-30T12:25:54;15.70;;;13.35;;
43756;SDS011;73222;41.866;12.462;2024-01-30T12:28:20;15.40;;;13.82;;
43756;SDS011;73222;41.866;12.462;2024-01-30T12:30:45;15.50;;;13.55;;
43756;SDS011;73222;41.866;12.462;2024-01-30T12:33:20;16.35;;;14.18;;
43756;SDS011;73222;41.866;12.462;2024-01-30T12:35:46;15.48;;;12.95;;
43756;SDS011;73222;41.866;12.462;2024-01-30T12:38:13;14.75;;;13.02;;
43756;SDS011;73222;41.866;12.462;2024-01-30T12:40:39;17.02;;;13.57;;
43756;SDS011;73222;41.866;12.462;2024-01-30T12:43:05;16.75;;;14.05;;
43756;SDS011;73222;41.866;12.462;2024-01-30T12:45:31;13.63;;;12.05;;
43756;SDS011;73222;41.866;12.462;2024-01-30T12:47:56;17.98;;;14.05;;
43756;SDS011;73222;41.866;12.462;2024-01-30T12:50:23;19.40;;;14.50;;
43756;SDS011;73222;41.866;12.462;2024-01-30T12:52:48;16.38;;;12.93;;
43756;SDS011;73222;41.866;12.462;2024-01-30T12:55:17;14.32;;;11.80;;
43756;SDS011;73222;41.866;12.462;2024-01-30T12:57:42;10.98;;;9.88;;
43756;SDS011;73222;41.866;12.462;2024-01-30T13:00:08;13.85;;;10.80;;
43756;SDS011;73222;41.866;12.462;2024-01-30T13:02:37;11.80;;;10.60;;
43756;SDS011;73222;41.866;12.462;2024-01-30T13:05:03;11.93;;;10.15;;
43756;SDS011;73222;41.866;12.462;2024-01-30T13:07:29;13.65;;;11.27;;
43756;SDS011;73222;41.866;12.462;2024-01-30T13:09:55;14.10;;;11.73;;
43756;SDS011;73222;41.866;12.462;2024-01-30T13:12:27;14.85;;;12.93;;
43756;SDS011;73222;41.866;12.462;2024-01-30T13:14:53;15.18;;;12.13;;
43756;SDS011;73222;41.866;12.462;2024-01-30T13:17:21;18.60;;;11.88;;
43756;SDS011;73222;41.866;12.462;2024-01-30T13:19:46;14.57;;;11.55;;
43756;SDS011;73222;41.866;12.462;2024-01-30T13:22:14;14.48;;;11.77;;
43756;SDS011;73222;41.866;12.462;2024-01-30T13:24:40;13.23;;;11.68;;
43756;SDS011;73222;41.866;12.462;2024-01-30T13:27:06;13.63;;;12.10;;
43756;SDS011;73222;41.866;12.462;2024-01-30T13:29:32;13.82;;;12.15;;
43756;SDS011;73222;41.866;12.462;2024-01-30T13:31:57;14.80;;;11.55;;
43756;SDS011;73222;41.866;12.462;2024-01-30T13:34:23;12.30;;;10.60;;
43756;SDS011;73222;41.866;12.462;2024-01-30T13:36:48;13.43;;;11.70;;
43756;SDS011;73222;41.866;12.462;2024-01-30T13:39:14;14.80;;;10.27;;
43756;SDS011;73222;41.866;12.462;2024-01-30T13:41:41;14.70;;;12.27;;
43756;SDS011;73222;41.866;12.462;2024-01-30T13:44:07;13.35;;;11.43;;
43756;SDS011;73222;41.866;12.462;2024-01-30T13:46:34;13.10;;;11.70;;
43756;SDS011;73222;41.866;12.462;2024-01-30T13:49:00;13.10;;;11.65;;
43756;SDS011;73222;41.866;12.462;2024-01-30T13:51:26;13.32;;;11.93;;
43756;SDS011;73222;41.866;12.462;2024-01-30T13:53:51;18.60;;;11.73;;
43756;SDS011;73222;41.866;12.462;2024-01-30T13:56:17;15.88;;;12.95;;
43756;SDS011;73222;41.866;12.462;2024-01-30T13:58:45;14.32;;;11.63;;
43756;SDS011;73222;41.866;12.462;2024-01-30T14:01:10;22.38;;;12.00;;
43756;SDS011;73222;41.866;12.462;2024-01-30T14:03:36;16.35;;;11.75;;
43756;SDS011;73222;41.866;12.462;2024-01-30T14:06:01;14.55;;;11.38;;
43756;SDS011;73222;41.866;12.462;2024-01-30T14:08:27;17.80;;;10.90;;
43756;SDS011;73222;41.866;12.462;2024-01-30T14:10:55;14.60;;;10.15;;
43756;SDS011;73222;41.866;12.462;2024-01-30T14:13:21;11.52;;;8.60;;